Time;durP1;ratioP1;P1;durP2;ratioP2;P2;SDS_P1;SDS_P2;PMS_P1;PMS_P2;Temp;Humidity;BMP_temperature;BMP_pressure;BME280_temperature;BME280_humidity;BME280_pressure;Samples;Min_cycle;Max_cycle;Signal;HPM_P1;HPM_P2
2023/01/31 00:01:26;;;;;;;20.30;4.50;;;5.60;99.90;;;;;;5034717;28;20501;-78
2023/01/31 00:03:54;;;;;;;12.53;4.23;;;5.80;99.90;;;;;;5021160;28;20532;-79
2023/01/31 00:06:26;;;;;;;11.00;3.40;;;5.40;99.90;;;;;;5031251;28;20436;-78
2023/01/31 00:08:53;;;;;;;10.13;2.93;;;5.60;99.90;;;;;;5024119;28;20465;-79
2023/01/31 00:11:21;;;;;;;13.10;4.00;;;5.60;99.90;;;;;;5014563;28;20622;-79
2023/01/31 00:13:47;;;;;;;12.10;4.17;;;5.70;99.90;;;;;;5041252;28;20433;-78
2023/01/31 00:16:15;;;;;;;15.93;4.07;;;5.80;99.90;;;;;;5018017;28;20424;-79
2023/01/31 00:18:41;;;;;;;12.87;4.30;;;5.60;99.90;;;;;;5026517;28;20425;-79
2023/01/31 00:21:16;;;;;;;16.33;3.73;;;5.70;99.90;;;;;;5021469;28;20944;-79
2023/01/31 00:23:43;;;;;;;17.07;4.30;;;5.50;99.90;;;;;;5015564;28;20423;-77
2023/01/31 00:26:17;;;;;;;14.00;4.63;;;5.70;99.90;;;;;;5044051;28;20554;-78
2023/01/31 00:28:44;;;;;;;18.20;3.83;;;5.70;99.90;;;;;;4998218;28;20457;-78
2023/01/31 00:31:11;;;;;;;16.03;5.07;;;5.40;99.90;;;;;;5017397;28;20424;-79
2023/01/31 00:33:39;;;;;;;12.40;4.27;;;5.50;99.90;;;;;;5040121;28;20417;-77
2023/01/31 00:36:11;;;;;;;8.97;3.90;;;5.50;99.90;;;;;;5039231;28;20406;-77
2023/01/31 00:38:36;;;;;;;14.10;4.20;;;5.40;99.90;;;;;;5000925;28;20837;-77
2023/01/31 00:41:03;;;;;;;13.10;5.30;;;5.50;99.90;;;;;;5036542;28;20729;-78
2023/01/31 00:43:30;;;;;;;14.03;4.57;;;5.40;99.90;;;;;;5036495;28;20521;-78
2023/01/31 00:45:56;;;;;;;13.60;4.50;;;5.60;99.90;;;;;;5024521;28;20434;-78
2023/01/31 00:48:22;;;;;;;15.77;5.37;;;5.60;99.90;;;;;;5028239;28;20452;-78
2023/01/31 00:50:48;;;;;;;12.10;4.43;;;5.60;99.90;;;;;;5019447;28;20416;-78
2023/01/31 00:53:14;;;;;;;12.33;4.60;;;5.40;99.90;;;;;;5014520;28;20781;-78
2023/01/31 00:55:39;;;;;;;11.07;4.13;;;5.50;99.90;;;;;;5024684;28;20207;-79
2023/01/31 00:58:05;;;;;;;11.97;4.03;;;5.60;99.90;;;;;;5035830;28;20196;-79
2023/01/31 01:00:31;;;;;;;14.97;4.40;;;5.70;99.90;;;;;;5001218;28;20347;-77
2023/01/31 01:02:57;;;;;;;11.17;4.37;;;5.50;99.90;;;;;;5049779;28;20778;-79
2023/01/31 01:05:22;;;;;;;10.93;4.20;;;5.50;99.90;;;;;;5052850;28;20461;-79
2023/01/31 01:07:48;;;;;;;16.90;5.07;;;5.60;99.90;;;;;;5038025;28;20292;-79
2023/01/31 01:10:14;;;;;;;16.37;4.30;;;5.70;99.90;;;;;;5051464;28;20186;-77
2023/01/31 01:12:39;;;;;;;9.90;4.10;;;5.50;99.90;;;;;;5047345;28;20184;-78
2023/01/31 01:15:06;;;;;;;13.00;4.50;;;5.70;99.90;;;;;;5050914;28;20309;-78
2023/01/31 01:17:31;;;;;;;17.50;4.50;;;5.70;99.90;;;;;;5052008;28;20260;-78
2023/01/31 01:19:57;;;;;;;15.63;5.13;;;5.60;99.90;;;;;;5018803;28;20479;-78
2023/01/31 01:22:22;;;;;;;16.77;4.60;;;5.40;99.90;;;;;;5050250;28;20216;-78
2023/01/31 01:24:48;;;;;;;11.93;4.20;;;5.70;99.90;;;;;;5018361;28;20203;-78
2023/01/31 01:27:13;;;;;;;11.50;5.27;;;5.70;99.90;;;;;;5047912;28;20178;-78
2023/01/31 01:29:39;;;;;;;18.37;4.93;;;5.70;99.90;;;;;;5047944;28;20415;-79
2023/01/31 01:32:06;;;;;;;13.40;4.80;;;5.60;99.90;;;;;;5005922;28;20616;-78
2023/01/31 01:34:33;;;;;;;11.90;4.30;;;5.40;99.90;;;;;;5025943;28;20714;-78
2023/01/31 01:36:58;;;;;;;16.00;4.40;;;5.60;99.90;;;;;;5033383;28;20408;-78
2023/01/31 01:39:24;;;;;;;11.13;4.00;;;5.50;99.90;;;;;;5040462;28;20467;-78
2023/01/31 01:41:51;;;;;;;15.57;4.50;;;5.60;99.90;;;;;;5041382;28;20193;-78
2023/01/31 01:44:50;;;;;;;14.20;5.30;;;5.60;99.90;;;;;;5051239;28;20779;-78
2023/01/31 01:47:31;;;;;;;12.37;3.83;;;5.50;99.90;;;;;;5029017;28;20686;-79
2023/01/31 01:50:20;;;;;;;13.07;4.40;;;5.60;99.90;;;;;;5016297;28;20410;-78
2023/01/31 01:52:59;;;;;;;12.97;4.43;;;5.50;99.90;;;;;;5052233;28;20777;-79
2023/01/31 01:55:41;;;;;;;14.30;3.90;;;5.40;99.90;;;;;;5046651;28;20841;-77
2023/01/31 01:58:13;;;;;;;12.33;4.10;;;5.30;99.90;;;;;;5051245;28;20422;-78
2023/01/31 02:00:39;;;;;;;12.63;3.60;;;5.50;99.90;;;;;;5024807;28;20422;-78
2023/01/31 02:03:06;;;;;;;13.07;4.40;;;5.30;99.90;;;;;;5038668;28;20975;-77
2023/01/31 02:05:59;;;;;;;8.43;3.90;;;5.30;99.90;;;;;;5038180;28;20210;-77
2023/01/31 02:08:28;;;;;;;13.20;3.63;;;5.20;99.90;;;;;;5014514;28;20547;-78
2023/01/31 02:11:24;;;;;;;14.20;4.40;;;5.40;99.90;;;;;;5023456;28;20416;-77
2023/01/31 02:13:56;;;;;;;13.73;3.67;;;5.40;99.90;;;;;;5004719;28;20446;-77
2023/01/31 02:16:22;;;;;;;16.87;4.20;;;5.30;99.90;;;;;;5026561;28;20469;-78
2023/01/31 02:18:48;;;;;;;10.10;4.07;;;5.40;99.90;;;;;;5001439;28;20417;-78
2023/01/31 02:21:35;;;;;;;9.90;4.80;;;5.40;99.90;;;;;;5029919;28;20228;-77
2023/01/31 02:24:15;;;;;;;10.70;3.60;;;5.30;99.90;;;;;;5030346;28;20198;-78
2023/01/31 02:26:56;;;;;;;14.93;5.23;;;5.20;99.90;;;;;;5030124;28;20766;-78
2023/01/31 02:29:24;;;;;;;11.63;3.73;;;5.40;99.90;;;;;;5030063;28;20488;-79
2023/01/31 02:32:12;;;;;;;14.87;3.83;;;5.40;99.90;;;;;;5030057;28;20416;-78
2023/01/31 02:34:50;;;;;;;11.07;3.50;;;5.40;99.90;;;;;;5012051;28;20428;-78
2023/01/31 02:37:28;;;;;;;9.87;4.10;;;5.20;99.90;;;;;;5029620;28;21024;-78
2023/01/31 02:40:35;;;;;;;9.60;3.93;;;5.50;99.90;;;;;;5029771;28;20450;-78
2023/01/31 02:43:14;;;;;;;14.00;3.53;;;5.40;99.90;;;;;;4996169;28;20416;-78
2023/01/31 02:45:55;;;;;;;15.00;4.20;;;5.50;99.90;;;;;;5029740;28;20425;-78
2023/01/31 02:48:32;;;;;;;13.20;3.87;;;5.40;99.90;;;;;;5029580;28;20469;-78
2023/01/31 02:51:11;;;;;;;17.47;4.77;;;5.20;99.90;;;;;;5012134;28;20409;-78
2023/01/31 02:53:44;;;;;;;10.93;3.30;;;5.30;99.90;;;;;;5029368;28;20409;-78
2023/01/31 02:56:24;;;;;;;9.17;3.93;;;5.20;99.90;;;;;;5029656;28;20421;-78
2023/01/31 02:59:05;;;;;;;13.33;4.67;;;5.50;99.90;;;;;;5011774;28;20421;-78
2023/01/31 03:01:34;;;;;;;12.70;4.10;;;5.30;99.90;;;;;;4995313;28;20453;-78
2023/01/31 03:04:06;;;;;;;9.60;3.47;;;5.30;99.90;;;;;;5010451;28;20830;-79
2023/01/31 03:06:34;;;;;;;12.87;4.07;;;5.10;99.90;;;;;;5011786;28;20551;-78
2023/01/31 03:09:03;;;;;;;8.53;3.53;;;5.10;99.90;;;;;;5011366;28;20460;-78
2023/01/31 03:12:02;;;;;;;14.37;4.93;;;5.20;99.90;;;;;;5011864;28;21001;-78
2023/01/31 03:14:45;;;;;;;10.33;3.97;;;5.30;99.90;;;;;;5011288;28;20433;-78
2023/01/31 03:17:31;;;;;;;18.37;3.80;;;5.40;99.90;;;;;;5029215;28;20420;-78
2023/01/31 03:20:19;;;;;;;8.53;4.17;;;5.20;99.90;;;;;;5028829;28;20421;-78
2023/01/31 03:22:50;;;;;;;15.00;3.93;;;5.40;99.90;;;;;;5029108;28;20409;-79
2023/01/31 03:25:20;;;;;;;13.60;3.33;;;5.20;99.90;;;;;;4995002;28;20464;-78
2023/01/31 03:27:54;;;;;;;10.80;3.37;;;5.30;99.90;;;;;;5011201;28;21063;-78
2023/01/31 03:30:29;;;;;;;9.87;3.90;;;5.20;99.90;;;;;;5011586;28;20428;-78
2023/01/31 03:33:00;;;;;;;11.17;3.17;;;5.40;99.90;;;;;;5011266;28;20502;-78
2023/01/31 03:35:29;;;;;;;11.87;3.67;;;5.30;99.90;;;;;;5029024;28;20436;-78
2023/01/31 03:38:04;;;;;;;10.97;3.70;;;5.20;99.90;;;;;;5011241;28;20421;-78
2023/01/31 03:40:35;;;;;;;9.97;3.87;;;5.40;99.90;;;;;;5028866;28;20515;-78
2023/01/31 03:43:19;;;;;;;11.73;3.50;;;5.20;99.90;;;;;;5011055;28;20479;-78
2023/01/31 03:45:50;;;;;;;12.37;4.27;;;5.40;99.90;;;;;;5029328;28;20539;-77
2023/01/31 03:48:18;;;;;;;15.63;4.03;;;5.50;99.90;;;;;;5011113;28;20503;-78
2023/01/31 03:50:52;;;;;;;8.67;3.60;;;5.50;99.90;;;;;;5011022;28;20822;-78
2023/01/31 03:53:36;;;;;;;10.10;3.10;;;5.50;99.90;;;;;;5010933;28;20516;-78
2023/01/31 03:56:12;;;;;;;8.97;3.10;;;5.30;99.90;;;;;;5011587;28;20453;-78
2023/01/31 03:58:41;;;;;;;9.40;3.27;;;5.40;99.90;;;;;;5010922;28;20459;-78
2023/01/31 04:01:09;;;;;;;9.10;3.37;;;5.50;99.90;;;;;;5028780;28;20425;-78
2023/01/31 04:03:40;;;;;;;10.70;3.97;;;5.50;99.90;;;;;;4993396;28;20428;-78
2023/01/31 04:06:07;;;;;;;14.10;2.90;;;5.50;99.90;;;;;;5011424;28;20452;-78
2023/01/31 04:08:33;;;;;;;13.63;4.30;;;5.50;99.90;;;;;;5010890;28;20461;-78
2023/01/31 04:11:02;;;;;;;9.57;3.10;;;5.30;99.90;;;;;;5028639;28;20409;-78
2023/01/31 04:13:28;;;;;;;8.13;3.00;;;5.50;99.90;;;;;;5010655;28;20413;-78
2023/01/31 04:15:53;;;;;;;11.27;3.57;;;5.30;99.90;;;;;;5011153;28;20423;-79
2023/01/31 04:18:19;;;;;;;12.73;3.50;;;5.30;99.90;;;;;;5030811;28;20190;-79
2023/01/31 04:20:44;;;;;;;5.87;2.37;;;5.60;99.90;;;;;;5032414;28;20185;-78
2023/01/31 04:23:10;;;;;;;8.20;2.90;;;5.50;99.90;;;;;;5014530;28;20209;-79
2023/01/31 04:25:35;;;;;;;6.50;2.73;;;5.50;99.90;;;;;;5032508;28;20666;-78
2023/01/31 04:28:01;;;;;;;7.77;2.80;;;5.30;99.90;;;;;;5032253;28;20210;-78
2023/01/31 04:30:27;;;;;;;9.80;3.40;;;5.50;99.90;;;;;;5014454;28;20274;-79
2023/01/31 04:32:52;;;;;;;12.27;4.00;;;5.30;99.90;;;;;;5032198;28;20209;-78
2023/01/31 04:35:18;;;;;;;10.00;3.70;;;5.40;99.90;;;;;;5031996;28;20234;-78
2023/01/31 04:37:44;;;;;;;12.47;3.70;;;5.30;99.90;;;;;;5032122;28;20178;-78
2023/01/31 04:40:11;;;;;;;11.10;4.00;;;5.30;99.90;;;;;;5032013;28;20186;-79
2023/01/31 04:42:36;;;;;;;10.80;4.07;;;5.20;99.90;;;;;;5014165;28;20182;-79
2023/01/31 04:45:02;;;;;;;9.20;3.90;;;5.40;99.90;;;;;;5032247;28;20794;-78
2023/01/31 04:47:28;;;;;;;15.33;4.20;;;5.30;99.90;;;;;;5013968;28;20731;-78
2023/01/31 04:49:54;;;;;;;17.90;5.27;;;5.20;99.90;;;;;;5014078;28;20508;-79
2023/01/31 04:52:19;;;;;;;15.37;4.10;;;5.30;99.90;;;;;;5014282;28;20174;-78
2023/01/31 04:54:45;;;;;;;9.90;4.30;;;5.40;99.90;;;;;;5031699;28;20568;-79
2023/01/31 04:57:10;;;;;;;7.77;4.13;;;5.40;99.90;;;;;;5031746;28;20189;-78
2023/01/31 04:59:36;;;;;;;12.33;4.30;;;5.50;99.90;;;;;;5013962;28;20175;-79
2023/01/31 05:02:01;;;;;;;8.23;3.80;;;5.30;99.90;;;;;;5014212;28;20205;-78
2023/01/31 05:04:27;;;;;;;12.03;4.67;;;5.30;99.90;;;;;;5013627;28;20226;-79
2023/01/31 05:06:53;;;;;;;6.80;3.60;;;5.30;99.90;;;;;;5013900;28;20212;-79
2023/01/31 05:09:19;;;;;;;10.10;4.63;;;5.50;99.90;;;;;;5013877;28;20214;-78
2023/01/31 05:11:45;;;;;;;16.23;4.90;;;5.50;99.90;;;;;;5014573;28;20170;-78
2023/01/31 05:14:12;;;;;;;14.27;5.07;;;5.20;99.90;;;;;;5014481;28;20430;-77
2023/01/31 05:16:38;;;;;;;12.73;4.83;;;5.50;99.90;;;;;;5014784;28;20409;-77
2023/01/31 05:19:03;;;;;;;8.67;3.73;;;5.30;99.90;;;;;;5031693;28;20413;-77
2023/01/31 05:21:29;;;;;;;12.07;4.90;;;5.50;99.90;;;;;;5013640;28;20170;-78
2023/01/31 05:23:54;;;;;;;14.03;5.90;;;5.20;99.90;;;;;;5013391;28;20248;-77
2023/01/31 05:26:20;;;;;;;14.70;4.90;;;5.30;99.90;;;;;;5031429;28;20643;-78
2023/01/31 05:28:46;;;;;;;17.10;6.17;;;5.20;99.90;;;;;;5012332;28;20202;-78
2023/01/31 05:31:12;;;;;;;18.00;5.57;;;5.20;99.90;;;;;;5012539;28;20171;-78
2023/01/31 05:33:38;;;;;;;13.53;4.67;;;5.20;99.90;;;;;;5013041;28;20220;-78
2023/01/31 05:36:04;;;;;;;9.17;5.40;;;5.40;99.90;;;;;;5031141;28;20452;-78
2023/01/31 05:38:29;;;;;;;9.03;4.80;;;5.40;99.90;;;;;;5013096;28;20181;-78
2023/01/31 05:40:55;;;;;;;9.00;4.90;;;5.50;99.90;;;;;;5027073;28;20429;-78
2023/01/31 05:43:21;;;;;;;19.07;6.30;;;5.20;99.90;;;;;;5034543;28;20448;-77
2023/01/31 05:45:48;;;;;;;9.30;4.77;;;5.20;99.90;;;;;;5013786;28;20209;-76
2023/01/31 05:48:13;;;;;;;15.70;6.47;;;5.20;99.90;;;;;;5034703;28;20202;-77
2023/01/31 05:50:39;;;;;;;15.90;6.60;;;5.50;99.90;;;;;;4994588;28;20425;-76
2023/01/31 05:53:05;;;;;;;18.73;5.90;;;5.30;99.90;;;;;;5012933;28;20670;-77
2023/01/31 05:55:30;;;;;;;11.00;5.33;;;5.50;99.90;;;;;;5033855;28;20209;-77
2023/01/31 05:57:56;;;;;;;15.43;6.03;;;5.50;99.90;;;;;;5036857;28;20674;-79
2023/01/31 06:00:23;;;;;;;11.60;5.50;;;5.30;99.90;;;;;;5033625;28;20186;-79
2023/01/31 06:02:49;;;;;;;11.87;6.00;;;5.50;99.90;;;;;;5033860;28;20174;-79
2023/01/31 06:05:15;;;;;;;17.20;6.50;;;5.30;99.90;;;;;;5032212;28;20458;-79
2023/01/31 06:07:41;;;;;;;14.17;6.33;;;5.20;99.90;;;;;;5036033;28;20488;-80
2023/01/31 06:10:08;;;;;;;19.10;8.17;;;5.30;99.90;;;;;;5036600;28;20418;-80
2023/01/31 06:12:34;;;;;;;11.40;5.60;;;5.40;99.90;;;;;;5054051;28;20224;-79
2023/01/31 06:15:00;;;;;;;11.60;5.67;;;5.60;99.90;;;;;;5035698;28;20432;-80
2023/01/31 06:17:26;;;;;;;12.43;6.10;;;5.50;99.90;;;;;;5052892;28;20192;-80
2023/01/31 06:19:51;;;;;;;13.17;6.50;;;5.50;99.90;;;;;;5036884;28;20414;-80
2023/01/31 06:22:20;;;;;;;15.67;5.93;;;5.30;99.90;;;;;;5032424;28;20734;-79
2023/01/31 06:24:46;;;;;;;10.10;6.37;;;5.30;99.90;;;;;;5031183;28;20202;-79
2023/01/31 06:27:11;;;;;;;15.57;6.60;;;5.50;99.90;;;;;;5030449;28;20796;-79
2023/01/31 06:29:37;;;;;;;15.93;7.33;;;5.40;99.90;;;;;;5035070;28;20564;-79
2023/01/31 06:32:03;;;;;;;12.07;6.50;;;5.40;99.90;;;;;;5051384;28;20247;-79
2023/01/31 06:34:29;;;;;;;14.17;5.67;;;5.60;99.90;;;;;;5052478;28;20834;-79
2023/01/31 06:36:54;;;;;;;12.07;6.07;;;5.50;99.90;;;;;;5052348;28;20491;-79
2023/01/31 06:39:20;;;;;;;16.00;5.80;;;5.60;99.90;;;;;;5048997;28;20320;-79
2023/01/31 06:41:46;;;;;;;15.40;6.20;;;5.50;99.90;;;;;;5047987;28;20254;-79
2023/01/31 06:44:11;;;;;;;19.87;6.30;;;5.50;99.90;;;;;;5050591;28;20201;-79
2023/01/31 06:46:37;;;;;;;16.83;7.07;;;5.60;99.90;;;;;;5001325;28;20265;-79
2023/01/31 06:49:03;;;;;;;14.40;6.40;;;5.60;99.90;;;;;;5042719;28;20288;-79
2023/01/31 06:51:29;;;;;;;14.20;6.57;;;5.60;99.90;;;;;;5052236;28;20424;-79
2023/01/31 06:53:55;;;;;;;12.70;6.60;;;5.60;99.90;;;;;;5018360;28;21027;-79
2023/01/31 06:56:21;;;;;;;15.07;6.27;;;5.70;99.90;;;;;;5048419;28;20206;-79
2023/01/31 06:58:47;;;;;;;15.60;8.03;;;5.60;99.90;;;;;;5015694;28;20450;-79
2023/01/31 07:01:14;;;;;;;12.80;6.80;;;5.50;99.90;;;;;;5032665;28;20875;-79
2023/01/31 07:03:40;;;;;;;15.63;6.60;;;5.60;99.90;;;;;;5049570;28;20542;-79
2023/01/31 07:06:07;;;;;;;16.43;7.23;;;5.50;99.90;;;;;;5050623;28;20416;-79
2023/01/31 07:08:33;;;;;;;16.47;8.03;;;5.50;99.90;;;;;;4998422;28;20473;-79
2023/01/31 07:11:02;;;;;;;14.30;7.70;;;5.80;99.90;;;;;;5005631;28;20497;-79
2023/01/31 07:13:29;;;;;;;17.53;7.90;;;5.60;99.90;;;;;;5033638;28;20411;-79
2023/01/31 07:15:55;;;;;;;17.60;7.73;;;5.80;99.90;;;;;;5052626;28;20405;-79
2023/01/31 07:18:21;;;;;;;19.37;6.33;;;5.50;99.90;;;;;;5037826;28;20422;-79
2023/01/31 07:20:47;;;;;;;19.03;7.40;;;5.60;99.90;;;;;;5011082;28;20471;-79
2023/01/31 07:23:13;;;;;;;16.97;7.63;;;5.60;99.90;;;;;;5017574;28;20499;-79
2023/01/31 07:25:38;;;;;;;16.70;7.17;;;5.60;99.90;;;;;;5028208;28;20207;-79
2023/01/31 07:28:04;;;;;;;18.97;6.67;;;5.50;99.90;;;;;;5011850;28;20680;-78
2023/01/31 07:30:30;;;;;;;24.50;8.20;;;5.50;99.90;;;;;;4995359;28;20273;-79
2023/01/31 07:32:55;;;;;;;19.10;7.00;;;5.40;99.90;;;;;;5009741;28;20268;-79
2023/01/31 07:35:21;;;;;;;18.27;7.47;;;5.60;99.90;;;;;;5035711;28;20440;-79
2023/01/31 07:37:50;;;;;;;20.13;7.50;;;5.60;99.90;;;;;;5017452;28;20541;-80
2023/01/31 07:40:15;;;;;;;15.00;7.10;;;5.60;99.90;;;;;;5035259;28;20902;-80
2023/01/31 07:42:41;;;;;;;18.17;8.90;;;5.60;99.90;;;;;;5051839;28;20420;-77
2023/01/31 07:45:10;;;;;;;19.30;7.20;;;5.50;99.90;;;;;;5034707;28;20201;-79
2023/01/31 07:47:35;;;;;;;17.80;7.37;;;5.70;99.90;;;;;;5051616;28;20170;-80
2023/01/31 07:50:02;;;;;;;17.30;6.37;;;5.40;99.90;;;;;;5051886;28;21252;-80
2023/01/31 07:52:27;;;;;;;14.70;6.30;;;5.50;99.90;;;;;;5035751;28;20188;-80
2023/01/31 07:54:53;;;;;;;19.03;6.90;;;5.50;99.90;;;;;;5039227;28;20423;-77
2023/01/31 07:57:19;;;;;;;15.90;6.23;;;5.60;99.90;;;;;;5057287;28;20174;-78
2023/01/31 07:59:44;;;;;;;17.97;7.20;;;5.70;99.90;;;;;;5039568;28;20181;-80
2023/01/31 08:04:56;;;;;;;12.37;5.73;;;5.70;99.90;;;;;;5039371;28;20216;-80
2023/01/31 08:07:22;;;;;;;15.20;6.20;;;5.70;99.90;;;;;;5043184;28;20431;-80
2023/01/31 08:09:49;;;;;;;12.90;6.50;;;5.60;99.90;;;;;;5029746;28;20266;-79
2023/01/31 08:12:15;;;;;;;14.80;6.57;;;5.60;99.90;;;;;;5045675;28;20256;-79
2023/01/31 08:14:41;;;;;;;15.10;5.80;;;5.50;99.90;;;;;;5028950;28;20435;-79
2023/01/31 08:17:07;;;;;;;14.00;5.80;;;5.50;99.90;;;;;;5043257;28;20433;-79
2023/01/31 08:19:33;;;;;;;16.00;5.70;;;5.70;99.90;;;;;;5008920;28;20416;-80
2023/01/31 08:22:00;;;;;;;13.70;4.87;;;5.70;99.90;;;;;;5050791;28;21025;-80
2023/01/31 08:24:25;;;;;;;13.67;5.77;;;5.70;99.90;;;;;;5029830;28;20445;-79
2023/01/31 08:26:51;;;;;;;13.70;5.00;;;5.80;99.90;;;;;;5051036;28;20451;-80
2023/01/31 08:29:17;;;;;;;11.03;5.77;;;5.60;99.90;;;;;;5058185;28;20551;-79
2023/01/31 08:31:43;;;;;;;16.57;6.13;;;5.70;99.90;;;;;;5039337;28;20248;-80
2023/01/31 08:34:09;;;;;;;13.90;5.50;;;5.70;99.90;;;;;;5039490;28;20435;-80
2023/01/31 08:36:35;;;;;;;13.10;4.73;;;5.90;99.90;;;;;;5058290;28;20214;-79
2023/01/31 08:39:01;;;;;;;13.07;4.77;;;5.60;99.90;;;;;;5050351;28;20443;-79
2023/01/31 08:41:28;;;;;;;15.90;5.20;;;5.90;99.90;;;;;;5019619;28;20178;-79
2023/01/31 08:43:55;;;;;;;12.97;4.77;;;5.70;99.90;;;;;;5019043;28;20440;-80
2023/01/31 08:46:26;;;;;;;11.23;5.33;;;5.80;99.90;;;;;;5045331;28;20440;-77
2023/01/31 08:48:51;;;;;;;12.23;5.03;;;6.00;99.90;;;;;;5057033;28;20464;-79
2023/01/31 08:51:17;;;;;;;15.67;5.30;;;5.70;99.90;;;;;;5056954;28;20940;-79
2023/01/31 08:53:43;;;;;;;13.20;5.40;;;5.80;99.90;;;;;;5022626;28;20178;-80
2023/01/31 08:56:10;;;;;;;15.10;5.30;;;5.80;99.90;;;;;;5058025;28;20231;-77
2023/01/31 08:58:37;;;;;;;13.80;4.40;;;5.90;99.90;;;;;;5057668;28;20860;-79
2023/01/31 09:01:05;;;;;;;16.10;4.40;;;5.70;99.90;;;;;;5039472;28;20785;-78
2023/01/31 09:03:30;;;;;;;13.03;5.17;;;6.00;99.90;;;;;;5038843;28;20518;-79
2023/01/31 09:06:06;;;;;;;9.80;4.10;;;5.80;99.90;;;;;;5057222;28;20706;-80
2023/01/31 09:08:32;;;;;;;10.03;5.27;;;5.80;99.90;;;;;;5039333;28;20224;-77
2023/01/31 09:11:00;;;;;;;12.53;6.20;;;5.80;99.90;;;;;;5038911;28;20428;-77
2023/01/31 09:13:27;;;;;;;12.30;5.07;;;5.70;99.90;;;;;;5038845;28;20411;-80
2023/01/31 09:16:01;;;;;;;11.83;4.37;;;5.80;99.90;;;;;;5038996;28;20499;-80
2023/01/31 09:18:27;;;;;;;10.40;4.30;;;5.70;99.90;;;;;;5032784;28;20421;-79
2023/01/31 09:20:53;;;;;;;8.30;4.60;;;5.80;99.90;;;;;;5019475;28;20432;-80
2023/01/31 09:23:19;;;;;;;17.77;4.60;;;5.80;99.90;;;;;;5036580;28;20902;-79
2023/01/31 09:25:53;;;;;;;23.53;4.70;;;5.80;99.90;;;;;;5019001;28;20213;-78
2023/01/31 09:28:18;;;;;;;12.53;4.97;;;5.80;99.90;;;;;;5036556;28;20464;-78
2023/01/31 09:30:44;;;;;;;17.07;5.17;;;5.90;99.90;;;;;;5002448;28;20421;-79
2023/01/31 09:33:10;;;;;;;8.00;4.10;;;5.80;99.90;;;;;;5001756;28;20228;-80
2023/01/31 09:35:35;;;;;;;16.00;4.20;;;5.80;99.90;;;;;;5018358;28;20234;-79
2023/01/31 09:38:01;;;;;;;14.00;4.60;;;5.70;99.90;;;;;;5036141;28;20210;-80
2023/01/31 09:40:31;;;;;;;10.03;3.23;;;5.90;99.90;;;;;;5018726;28;20205;-78
2023/01/31 09:43:00;;;;;;;9.03;3.90;;;5.80;99.90;;;;;;5017848;28;20178;-78
2023/01/31 09:45:31;;;;;;;9.70;3.87;;;5.80;99.90;;;;;;5018910;28;20456;-80
2023/01/31 09:47:59;;;;;;;11.70;4.20;;;6.00;99.90;;;;;;5035370;28;20837;-78
2023/01/31 09:50:39;;;;;;;13.37;4.40;;;5.80;99.90;;;;;;5036207;28;20798;-79
2023/01/31 09:53:05;;;;;;;12.70;4.57;;;5.80;99.90;;;;;;5037336;28;20424;-79
2023/01/31 09:55:45;;;;;;;13.30;3.73;;;5.90;99.90;;;;;;5037993;28;20425;-78
2023/01/31 09:58:16;;;;;;;13.63;4.30;;;6.10;99.90;;;;;;5035890;28;20201;-79
2023/01/31 10:01:10;;;;;;;8.87;3.67;;;5.80;99.90;;;;;;5035819;28;20502;-79
2023/01/31 10:03:59;;;;;;;13.13;3.97;;;5.90;99.90;;;;;;5034725;28;20470;-79
2023/01/31 10:06:33;;;;;;;13.67;4.53;;;5.80;99.90;;;;;;5018365;28;20727;-77
2023/01/31 10:09:09;;;;;;;8.97;4.00;;;5.80;99.90;;;;;;5035765;28;20468;-80
2023/01/31 10:11:44;;;;;;;11.83;3.70;;;5.90;99.90;;;;;;5001918;28;20791;-80
2023/01/31 10:14:18;;;;;;;9.43;3.53;;;6.00;99.90;;;;;;5018153;28;20806;-79
2023/01/31 10:17:08;;;;;;;12.27;4.03;;;5.70;99.90;;;;;;5034461;28;20409;-79
2023/01/31 10:19:45;;;;;;;7.10;4.30;;;6.10;99.90;;;;;;5010506;28;20520;-77
2023/01/31 10:22:47;;;;;;;12.53;3.87;;;6.10;99.90;;;;;;5017668;28;20436;-79
2023/01/31 10:25:29;;;;;;;9.33;4.13;;;5.80;99.90;;;;;;4969997;28;20985;-80
2023/01/31 10:28:13;;;;;;;13.80;5.00;;;5.90;99.90;;;;;;5017643;28;20568;-79
2023/01/31 10:31:01;;;;;;;11.43;5.13;;;6.00;99.90;;;;;;5036133;28;20421;-79
2023/01/31 10:33:42;;;;;;;8.93;4.20;;;5.90;99.90;;;;;;5017717;28;20425;-79
2023/01/31 10:36:36;;;;;;;11.50;5.60;;;6.00;99.90;;;;;;5001167;28;20420;-78
2023/01/31 10:39:09;;;;;;;15.90;4.50;;;6.00;99.90;;;;;;5034465;28;20421;-80
2023/01/31 10:41:43;;;;;;;12.50;5.20;;;5.90;99.90;;;;;;5017976;28;20487;-78
2023/01/31 10:44:31;;;;;;;8.07;4.30;;;6.10;99.90;;;;;;5035536;28;20440;-77
2023/01/31 10:46:58;;;;;;;10.27;4.40;;;6.10;99.90;;;;;;5035353;28;20444;-78
2023/01/31 10:49:29;;;;;;;11.53;5.70;;;5.70;99.90;;;;;;5035985;28;20464;-80
2023/01/31 10:52:05;;;;;;;12.57;4.77;;;5.90;99.90;;;;;;5018304;28;20417;-80
2023/01/31 10:54:41;;;;;;;10.53;4.70;;;5.90;99.90;;;;;;5035998;28;20929;-77
2023/01/31 10:57:07;;;;;;;9.20;4.63;;;6.00;99.90;;;;;;5034654;28;20907;-79
2023/01/31 10:59:38;;;;;;;17.23;6.10;;;5.90;99.90;;;;;;5016192;28;20977;-78
2023/01/31 11:02:13;;;;;;;6.53;4.80;;;6.10;99.90;;;;;;5034754;28;20181;-79
2023/01/31 11:04:42;;;;;;;9.13;5.40;;;6.00;99.90;;;;;;5034632;28;20467;-79
2023/01/31 11:07:09;;;;;;;6.23;4.20;;;6.10;99.90;;;;;;5016662;28;20952;-79
2023/01/31 11:09:46;;;;;;;9.90;5.20;;;6.00;99.90;;;;;;5016060;28;20469;-79
2023/01/31 11:12:11;;;;;;;11.60;5.40;;;5.90;99.90;;;;;;5035061;28;20916;-79
2023/01/31 11:14:38;;;;;;;17.33;5.87;;;6.20;99.90;;;;;;5017239;28;20444;-79
2023/01/31 11:17:20;;;;;;;8.97;5.33;;;6.20;99.90;;;;;;5015975;28;20285;-78
2023/01/31 11:19:50;;;;;;;11.70;5.50;;;6.10;99.90;;;;;;5007208;28;20910;-79
2023/01/31 11:22:24;;;;;;;12.17;6.30;;;6.20;99.90;;;;;;5033254;28;20827;-80
2023/01/31 11:24:51;;;;;;;8.73;5.63;;;6.00;99.90;;;;;;5014923;28;20969;-78
2023/01/31 11:27:51;;;;;;;9.80;5.87;;;6.00;99.90;;;;;;5014099;28;20519;-78
2023/01/31 11:30:24;;;;;;;12.30;6.23;;;6.10;99.90;;;;;;4973717;28;20422;-79
2023/01/31 11:32:50;;;;;;;12.47;6.20;;;6.10;99.90;;;;;;4998760;28;20818;-79
2023/01/31 11:35:15;;;;;;;11.37;5.87;;;6.00;99.90;;;;;;5033367;28;20433;-79
2023/01/31 11:37:54;;;;;;;11.17;5.50;;;6.00;99.90;;;;;;5015000;28;20582;-78
2023/01/31 11:40:29;;;;;;;8.43;5.60;;;6.30;99.90;;;;;;5014994;28;20269;-78
2023/01/31 11:43:25;;;;;;;15.83;7.60;;;6.20;99.90;;;;;;5032780;28;20495;-79
2023/01/31 11:45:57;;;;;;;11.03;5.77;;;6.10;99.90;;;;;;5031981;28;20799;-78
2023/01/31 11:48:38;;;;;;;11.30;6.20;;;6.40;99.90;;;;;;5015426;28;21127;-77
2023/01/31 11:51:04;;;;;;;17.80;7.60;;;6.30;99.90;;;;;;5015320;28;20483;-79
2023/01/31 11:53:42;;;;;;;11.60;7.13;;;6.20;99.90;;;;;;5013815;28;20924;-79
2023/01/31 11:56:21;;;;;;;11.40;6.37;;;6.20;99.90;;;;;;4999146;28;20540;-79
2023/01/31 11:58:52;;;;;;;9.87;6.07;;;6.20;99.90;;;;;;5015420;28;20478;-78
2023/01/31 12:01:21;;;;;;;19.27;6.70;;;6.10;99.90;;;;;;5033465;28;20762;-79
2023/01/31 12:04:04;;;;;;;11.67;6.63;;;6.30;99.90;;;;;;5015636;28;20421;-78
2023/01/31 12:06:40;;;;;;;16.73;6.40;;;6.10;99.90;;;;;;5015321;28;20431;-79
2023/01/31 12:09:21;;;;;;;14.93;7.63;;;6.40;99.90;;;;;;5033102;28;20463;-78
2023/01/31 12:12:05;;;;;;;15.83;7.63;;;6.20;99.90;;;;;;5033014;28;20471;-79
2023/01/31 12:14:39;;;;;;;11.57;7.43;;;6.30;99.90;;;;;;5033304;28;20430;-79
2023/01/31 12:17:09;;;;;;;18.53;8.50;;;6.30;99.90;;;;;;5015531;28;20487;-79
2023/01/31 12:19:54;;;;;;;17.90;8.10;;;6.30;99.90;;;;;;5025255;28;20718;-77
2023/01/31 12:22:37;;;;;;;14.30;7.60;;;6.20;99.90;;;;;;4999357;28;20455;-78
2023/01/31 12:25:40;;;;;;;16.60;7.60;;;6.20;99.90;;;;;;5015239;28;20445;-80
2023/01/31 12:28:45;;;;;;;13.37;7.93;;;6.20;99.90;;;;;;5015188;28;20452;-79
2023/01/31 12:31:22;;;;;;;10.70;7.63;;;6.40;99.90;;;;;;4992223;28;20432;-79
2023/01/31 12:34:29;;;;;;;12.13;8.17;;;6.40;99.90;;;;;;5015191;28;20448;-80
2023/01/31 12:37:16;;;;;;;14.10;8.40;;;6.60;99.90;;;;;;5018585;28;20524;-79
2023/01/31 12:40:00;;;;;;;11.93;8.20;;;6.30;99.90;;;;;;5036039;28;20429;-79
2023/01/31 12:42:31;;;;;;;20.37;8.00;;;6.40;99.90;;;;;;5002898;28;20843;-79
2023/01/31 12:45:24;;;;;;;13.83;8.53;;;6.30;99.90;;;;;;5019306;28;20441;-79
2023/01/31 12:48:13;;;;;;;22.37;8.30;;;6.40;99.90;;;;;;5019454;28;20943;-78
2023/01/31 12:51:00;;;;;;;10.63;8.27;;;6.60;99.90;;;;;;5019156;28;20418;-80
2023/01/31 12:53:41;;;;;;;13.50;9.77;;;6.40;99.90;;;;;;5018228;28;20844;-78
2023/01/31 12:56:25;;;;;;;13.73;8.13;;;6.40;99.90;;;;;;5019141;28;20421;-79
2023/01/31 12:59:03;;;;;;;15.27;8.30;;;6.40;99.90;;;;;;5036896;28;20520;-78
2023/01/31 13:01:45;;;;;;;13.03;8.37;;;6.50;99.90;;;;;;5018456;28;20417;-78
2023/01/31 13:04:26;;;;;;;13.40;7.87;;;6.30;99.90;;;;;;5036120;28;20456;-78
2023/01/31 13:07:03;;;;;;;13.50;9.10;;;6.20;99.90;;;;;;5035937;28;20417;-79
2023/01/31 13:09:34;;;;;;;15.90;8.60;;;6.30;99.90;;;;;;5015129;28;20510;-79
2023/01/31 13:12:12;;;;;;;11.30;8.97;;;6.40;99.90;;;;;;5009910;28;20498;-79